2CO3 weather

Jackrabbit Strip
Milliken, Colorado, United States

Public forecast

Using degrees Fahrenheit for public forecast. Weather courtesy of forecast.io.

METAR (pilot weather report)

Closest report is Northern Colorado Regional Airport, 7.8 nm (14.5 km) NW. Retrieved 2019/08/18 00:56 UTC (49 minutes ago):

KFNL 180056Z AUTO 31022G29KT 10SM FEW090 SCT120 27/05 A2991 RMK AO2 PK WND 26035/0023 WSHFT 0027 RAB25E46 SLP073 P0000 T02670050

TAF (pilot weather forecast)

Forecast is more than 12 hours old.

Closest forecast is Rocky Mountain Metropolitan Airport, 30.1 nm (55.8 km) SSW. Retrieved 2019/08/17 00:39 UTC (1 day ago):

TAF KBJC 172336Z 1800/1824 31016G24KT P6SM VCTS FEW080CB BKN120 FM180100 31013KT P6SM SCT100 BKN150 FM180400 31008KT P6SM SCT150 FM181000 35008KT P6SM SCT020 TEMPO 1812/1816 2SM BR BKN020 FM181700 11008KT P6SM FEW090 FEW250